TRA4U EHAM-LGIR
Flight info
| Callsign | TRA4U |
|---|---|
| Flight time | 3h 2m |
| Altitude | 35000 |
| Route | EDUPO Z739 MISGO DCT DOJOH DCT DODEN DCT NEGIX DCT DINKU M867 XERUM DCT BAVAX DCT RADIZ DCT NIPEL DCT ABISO DCT NEMEK DCT VRANA DCT PETAK DCT PINDO UL607 GIVIS T514 XAVIS |
| Aircraft | A20N/M-A20N/LB1 |
Departure
| Time | 2026-04-29 15:17 |
|---|---|
| Airport | Amsterdam Airport Schiphol (EHAM) |
Arrival
| Time | 2026-04-29 18:20 |
|---|---|
| Airport | Heraklion International Nikos Kazantzakis Airport (LGIR) |
| Time | Latitude | Longitude | Altitude | Speed | Heading |
|---|---|---|---|---|---|
| 2026-04-29 15:13 | 52.29835 | 4.75227 | 0 ft | 0 kts | 293° |
| 2026-04-29 15:13 | 52.29837 | 4.75222 | 0 ft | 2 kts | 294° |
| 2026-04-29 15:13 | 52.29882 | 4.75117 | -1 ft | 19 kts | 311° |
| 2026-04-29 15:14 | 52.29975 | 4.74944 | 0 ft | 20 kts | 311° |
| 2026-04-29 15:14 | 52.30067 | 4.74776 | 0 ft | 19 kts | 313° |
| 2026-04-29 15:14 | 52.30158 | 4.74614 | 0 ft | 19 kts | 309° |
| 2026-04-29 15:14 | 52.30240 | 4.74449 | 0 ft | 18 kts | 313° |
| 2026-04-29 15:15 | 52.30324 | 4.74290 | -1 ft | 18 kts | 300° |
| 2026-04-29 15:15 | 52.30332 | 4.74091 | -1 ft | 18 kts | 243° |
| 2026-04-29 15:15 | 52.30242 | 4.73941 | 0 ft | 18 kts | 218° |
| 2026-04-29 15:15 | 52.30210 | 4.73897 | 0 ft | 0 kts | 226° |
| 2026-04-29 15:16 | 52.30203 | 4.73883 | 0 ft | 6 kts | 232° |
| 2026-04-29 15:16 | 52.30191 | 4.73809 | -1 ft | 13 kts | 276° |
| 2026-04-29 15:16 | 52.30322 | 4.73744 | 0 ft | 46 kts | 4° |
| 2026-04-29 15:17 | 52.30882 | 4.73797 | 0 ft | 114 kts | 4° |
| 2026-04-29 15:17 | 52.31879 | 4.73893 | 7 ft | 167 kts | 5° |
| 2026-04-29 15:17 | 52.33088 | 4.73979 | 408 ft | 179 kts | 8° |
| 2026-04-29 15:17 | 52.34285 | 4.74164 | 1175 ft | 173 kts | 16° |
| 2026-04-29 15:18 | 52.35378 | 4.74636 | 1366 ft | 153 kts | 30° |
| 2026-04-29 15:18 | 52.36310 | 4.75447 | 1277 ft | 158 kts | 41° |
| 2026-04-29 15:18 | 52.37151 | 4.76498 | 2120 ft | 152 kts | 45° |
| 2026-04-29 15:18 | 52.37936 | 4.77556 | 2855 ft | 149 kts | 49° |
| 2026-04-29 15:19 | 52.38723 | 4.78788 | 3284 ft | 165 kts | 50° |
| 2026-04-29 15:19 | 52.39592 | 4.80161 | 3647 ft | 186 kts | 48° |
| 2026-04-29 15:19 | 52.40569 | 4.81660 | 4118 ft | 204 kts | 47° |
| 2026-04-29 15:19 | 52.41640 | 4.83327 | 4709 ft | 216 kts | 54° |
| 2026-04-29 15:20 | 52.42302 | 4.85461 | 5488 ft | 215 kts | 78° |
| 2026-04-29 15:20 | 52.42423 | 4.87874 | 6299 ft | 217 kts | 89° |
| 2026-04-29 15:20 | 52.42414 | 4.90321 | 7080 ft | 221 kts | 89° |
| 2026-04-29 15:20 | 52.42410 | 4.92845 | 7847 ft | 225 kts | 88° |
| 2026-04-29 15:21 | 52.42411 | 4.95399 | 8586 ft | 228 kts | 89° |
| 2026-04-29 15:21 | 52.42144 | 4.97960 | 9264 ft | 236 kts | 110° |
| 2026-04-29 15:21 | 52.41222 | 5.00204 | 9913 ft | 248 kts | 132° |
| 2026-04-29 15:21 | 52.39845 | 5.01930 | 10620 ft | 255 kts | 140° |
| 2026-04-29 15:22 | 52.38380 | 5.03599 | 11296 ft | 258 kts | 140° |
| 2026-04-29 15:22 | 52.36907 | 5.05277 | 11984 ft | 261 kts | 140° |
| 2026-04-29 15:22 | 52.35434 | 5.06968 | 12671 ft | 264 kts | 140° |
| 2026-04-29 15:22 | 52.33973 | 5.08772 | 13302 ft | 266 kts | 135° |
| 2026-04-29 15:23 | 52.32619 | 5.10815 | 13921 ft | 268 kts | 129° |
| 2026-04-29 15:23 | 52.31358 | 5.13054 | 14554 ft | 270 kts | 127° |
| 2026-04-29 15:23 | 52.30096 | 5.15352 | 15214 ft | 272 kts | 127° |
| 2026-04-29 15:23 | 52.28841 | 5.17640 | 15825 ft | 275 kts | 127° |
| 2026-04-29 15:24 | 52.27567 | 5.19961 | 16426 ft | 277 kts | 127° |
| 2026-04-29 15:24 | 52.26284 | 5.22295 | 17056 ft | 280 kts | 127° |
| 2026-04-29 15:24 | 52.24996 | 5.24654 | 17646 ft | 281 kts | 125° |
| 2026-04-29 15:24 | 52.23780 | 5.27159 | 18219 ft | 282 kts | 121° |
| 2026-04-29 15:25 | 52.22646 | 5.29761 | 18783 ft | 285 kts | 120° |
| 2026-04-29 15:25 | 52.21499 | 5.32407 | 19355 ft | 287 kts | 120° |
| 2026-04-29 15:25 | 52.20358 | 5.35035 | 19932 ft | 288 kts | 120° |
| 2026-04-29 15:25 | 52.19201 | 5.37699 | 20518 ft | 290 kts | 120° |
| 2026-04-29 15:26 | 52.18037 | 5.40376 | 21064 ft | 292 kts | 120° |
| 2026-04-29 15:26 | 52.16862 | 5.43074 | 21595 ft | 294 kts | 119° |
| 2026-04-29 15:26 | 52.15675 | 5.45798 | 22136 ft | 297 kts | 119° |
| 2026-04-29 15:26 | 52.14489 | 5.48521 | 22666 ft | 299 kts | 119° |
| 2026-04-29 15:27 | 52.13287 | 5.51273 | 23183 ft | 302 kts | 119° |
| 2026-04-29 15:27 | 52.12071 | 5.54051 | 23720 ft | 303 kts | 119° |
| 2026-04-29 15:27 | 52.10856 | 5.56826 | 24234 ft | 306 kts | 118° |
| 2026-04-29 15:27 | 52.09615 | 5.59656 | 24730 ft | 308 kts | 118° |
| 2026-04-29 15:28 | 52.08379 | 5.62477 | 25222 ft | 311 kts | 118° |
| 2026-04-29 15:28 | 52.07119 | 5.65343 | 25724 ft | 313 kts | 119° |
| 2026-04-29 15:28 | 52.05798 | 5.68159 | 26188 ft | 318 kts | 123° |
| 2026-04-29 15:28 | 52.04362 | 5.70890 | 26645 ft | 322 kts | 124° |
| 2026-04-29 15:29 | 52.02881 | 5.73656 | 27081 ft | 325 kts | 124° |
| 2026-04-29 15:29 | 51.99905 | 5.79208 | 27941 ft | 331 kts | 124° |
| 2026-04-29 15:30 | 51.96866 | 5.84871 | 28746 ft | 336 kts | 123° |
| 2026-04-29 15:30 | 51.95325 | 5.87750 | 29126 ft | 338 kts | 123° |
| 2026-04-29 15:30 | 51.93795 | 5.90608 | 29500 ft | 340 kts | 123° |
| 2026-04-29 15:30 | 51.92251 | 5.93491 | 29870 ft | 342 kts | 123° |
| 2026-04-29 15:31 | 51.90691 | 5.96399 | 30233 ft | 344 kts | 123° |
| 2026-04-29 15:31 | 51.89116 | 5.99329 | 30574 ft | 346 kts | 123° |
| 2026-04-29 15:31 | 51.87526 | 6.02279 | 30876 ft | 348 kts | 123° |
| 2026-04-29 15:31 | 51.85940 | 6.05223 | 31152 ft | 350 kts | 123° |
| 2026-04-29 15:32 | 51.84346 | 6.08171 | 31398 ft | 353 kts | 123° |
| 2026-04-29 15:32 | 51.82717 | 6.11167 | 31650 ft | 356 kts | 123° |
| 2026-04-29 15:32 | 51.81091 | 6.14148 | 31933 ft | 358 kts | 123° |
| 2026-04-29 15:32 | 51.79442 | 6.17171 | 32197 ft | 359 kts | 123° |
| 2026-04-29 15:33 | 51.77791 | 6.20194 | 32453 ft | 361 kts | 123° |
| 2026-04-29 15:33 | 51.76127 | 6.23238 | 32690 ft | 363 kts | 123° |
| 2026-04-29 15:33 | 51.74452 | 6.26300 | 32924 ft | 366 kts | 123° |
| 2026-04-29 15:33 | 51.72790 | 6.29331 | 33161 ft | 367 kts | 123° |
| 2026-04-29 15:34 | 51.71093 | 6.32421 | 33394 ft | 369 kts | 123° |
| 2026-04-29 15:34 | 51.69401 | 6.35500 | 33632 ft | 370 kts | 123° |
| 2026-04-29 15:34 | 51.67674 | 6.38634 | 33838 ft | 372 kts | 123° |
| 2026-04-29 15:34 | 51.65969 | 6.41729 | 34046 ft | 374 kts | 123° |
| 2026-04-29 15:35 | 51.64230 | 6.44876 | 34268 ft | 375 kts | 123° |
| 2026-04-29 15:35 | 51.62505 | 6.48002 | 34461 ft | 377 kts | 123° |
| 2026-04-29 15:35 | 51.60773 | 6.51135 | 34666 ft | 378 kts | 123° |
| 2026-04-29 15:35 | 51.59023 | 6.54302 | 34845 ft | 380 kts | 123° |
| 2026-04-29 15:36 | 51.57268 | 6.57475 | 34989 ft | 382 kts | 123° |
| 2026-04-29 15:36 | 51.55499 | 6.60664 | 35124 ft | 384 kts | 123° |
| 2026-04-29 15:36 | 51.53711 | 6.63883 | 35266 ft | 385 kts | 123° |
| 2026-04-29 15:37 | 51.50135 | 6.70303 | 35308 ft | 388 kts | 124° |
| 2026-04-29 15:37 | 51.46550 | 6.76726 | 35304 ft | 388 kts | 124° |
| 2026-04-29 15:38 | 51.42964 | 6.83136 | 35296 ft | 389 kts | 124° |
| 2026-04-29 15:38 | 51.39266 | 6.89457 | 35299 ft | 393 kts | 128° |
| 2026-04-29 15:39 | 51.35357 | 6.95533 | 35300 ft | 393 kts | 128° |
| 2026-04-29 15:39 | 51.31426 | 7.01637 | 35299 ft | 398 kts | 128° |
| 2026-04-29 15:40 | 51.27416 | 7.07860 | 35297 ft | 409 kts | 128° |
| 2026-04-29 15:40 | 51.23271 | 7.14264 | 35304 ft | 420 kts | 128° |
| 2026-04-29 15:41 | 51.19031 | 7.20791 | 35290 ft | 430 kts | 129° |
| 2026-04-29 15:41 | 51.14696 | 7.27445 | 35300 ft | 439 kts | 129° |
| 2026-04-29 15:42 | 51.10260 | 7.34234 | 35303 ft | 446 kts | 129° |
| 2026-04-29 15:42 | 51.05778 | 7.41073 | 35297 ft | 453 kts | 129° |
| 2026-04-29 15:43 | 51.01206 | 7.48031 | 35288 ft | 456 kts | 129° |
| 2026-04-29 15:43 | 50.96635 | 7.54967 | 35282 ft | 456 kts | 129° |
| 2026-04-29 15:44 | 50.92074 | 7.61867 | 35275 ft | 457 kts | 129° |
| 2026-04-29 15:44 | 50.87466 | 7.68818 | 35280 ft | 458 kts | 130° |
| 2026-04-29 15:45 | 50.82859 | 7.75749 | 35276 ft | 458 kts | 130° |
| 2026-04-29 15:45 | 50.78210 | 7.82688 | 35277 ft | 459 kts | 130° |
| 2026-04-29 15:46 | 50.73567 | 7.89590 | 35270 ft | 459 kts | 130° |
| 2026-04-29 15:46 | 50.68895 | 7.96520 | 35289 ft | 460 kts | 130° |
| 2026-04-29 15:47 | 50.64266 | 8.03359 | 35287 ft | 461 kts | 130° |
| 2026-04-29 15:47 | 50.59757 | 8.10478 | 35286 ft | 457 kts | 125° |
| 2026-04-29 15:48 | 50.55755 | 8.18120 | 35282 ft | 453 kts | 122° |
| 2026-04-29 15:48 | 50.51820 | 8.25863 | 35269 ft | 455 kts | 122° |
| 2026-04-29 15:49 | 50.47872 | 8.33601 | 35272 ft | 455 kts | 122° |
| 2026-04-29 15:49 | 50.43913 | 8.41329 | 35269 ft | 456 kts | 122° |
| 2026-04-29 15:50 | 50.39927 | 8.49095 | 35267 ft | 457 kts | 122° |
| 2026-04-29 15:50 | 50.35794 | 8.56589 | 35255 ft | 460 kts | 126° |
| 2026-04-29 15:51 | 50.31433 | 8.63903 | 35256 ft | 461 kts | 126° |
| 2026-04-29 15:51 | 50.27033 | 8.71263 | 35268 ft | 462 kts | 127° |
| 2026-04-29 15:52 | 50.22642 | 8.78582 | 35250 ft | 462 kts | 127° |
| 2026-04-29 15:52 | 50.18262 | 8.85868 | 35246 ft | 464 kts | 127° |
| 2026-04-29 15:53 | 50.13833 | 8.93207 | 35253 ft | 465 kts | 127° |
| 2026-04-29 15:53 | 50.09417 | 9.00507 | 35238 ft | 465 kts | 128° |
| 2026-04-29 15:54 | 50.04984 | 9.07812 | 35239 ft | 465 kts | 127° |
| 2026-04-29 15:54 | 50.00549 | 9.15101 | 35246 ft | 466 kts | 128° |
| 2026-04-29 15:55 | 49.96093 | 9.22399 | 35245 ft | 467 kts | 128° |
| 2026-04-29 15:55 | 49.91633 | 9.29687 | 35250 ft | 468 kts | 128° |
| 2026-04-29 15:56 | 49.87144 | 9.37006 | 35244 ft | 470 kts | 128° |
| 2026-04-29 15:56 | 49.82651 | 9.44300 | 35246 ft | 470 kts | 128° |
| 2026-04-29 15:57 | 49.78153 | 9.51592 | 35235 ft | 473 kts | 129° |
| 2026-04-29 15:57 | 49.73602 | 9.58943 | 35232 ft | 474 kts | 129° |
| 2026-04-29 15:58 | 49.69059 | 9.66259 | 35242 ft | 475 kts | 129° |
| 2026-04-29 15:58 | 49.64497 | 9.73578 | 35245 ft | 476 kts | 130° |
| 2026-04-29 15:59 | 49.59906 | 9.80933 | 35240 ft | 478 kts | 130° |
| 2026-04-29 15:59 | 49.55306 | 9.88274 | 35246 ft | 478 kts | 130° |
| 2026-04-29 16:00 | 49.50701 | 9.95607 | 35240 ft | 479 kts | 130° |
| 2026-04-29 16:00 | 49.46075 | 10.02950 | 35254 ft | 480 kts | 130° |
| 2026-04-29 16:01 | 49.41412 | 10.10330 | 35255 ft | 481 kts | 130° |
| 2026-04-29 16:01 | 49.36771 | 10.17650 | 35253 ft | 481 kts | 130° |
| 2026-04-29 16:02 | 49.32116 | 10.24972 | 35244 ft | 482 kts | 130° |
| 2026-04-29 16:02 | 49.27428 | 10.32254 | 35232 ft | 483 kts | 133° |
| 2026-04-29 16:03 | 49.22325 | 10.38913 | 35227 ft | 486 kts | 140° |
| 2026-04-29 16:03 | 49.16701 | 10.44647 | 35220 ft | 488 kts | 147° |
| 2026-04-29 16:04 | 49.10885 | 10.49907 | 35207 ft | 489 kts | 147° |
| 2026-04-29 16:04 | 49.05060 | 10.55182 | 35214 ft | 489 kts | 147° |
| 2026-04-29 16:05 | 48.99247 | 10.60444 | 35212 ft | 488 kts | 147° |
| 2026-04-29 16:05 | 48.93399 | 10.65726 | 35206 ft | 488 kts | 148° |
| 2026-04-29 16:06 | 48.87566 | 10.71014 | 35216 ft | 491 kts | 147° |
| 2026-04-29 16:06 | 48.82007 | 10.76949 | 35216 ft | 490 kts | 140° |
| 2026-04-29 16:07 | 48.76982 | 10.83761 | 35208 ft | 489 kts | 133° |
| 2026-04-29 16:07 | 48.72385 | 10.91346 | 35219 ft | 489 kts | 130° |
| 2026-04-29 16:08 | 48.67845 | 10.98988 | 35213 ft | 491 kts | 130° |
| 2026-04-29 16:08 | 48.63266 | 11.06644 | 35220 ft | 492 kts | 130° |
| 2026-04-29 16:09 | 48.58684 | 11.14269 | 35227 ft | 494 kts | 130° |
| 2026-04-29 16:09 | 48.54087 | 11.21896 | 35221 ft | 495 kts | 130° |
| 2026-04-29 16:10 | 48.49464 | 11.29540 | 35227 ft | 495 kts | 131° |
| 2026-04-29 16:10 | 48.44807 | 11.37224 | 35221 ft | 497 kts | 131° |
| 2026-04-29 16:11 | 48.40156 | 11.44868 | 35223 ft | 498 kts | 131° |
| 2026-04-29 16:11 | 48.35498 | 11.52507 | 35212 ft | 498 kts | 131° |
| 2026-04-29 16:12 | 48.30804 | 11.60183 | 35205 ft | 500 kts | 131° |
| 2026-04-29 16:12 | 48.26059 | 11.67782 | 35207 ft | 500 kts | 135° |
| 2026-04-29 16:13 | 48.20983 | 11.74880 | 35203 ft | 500 kts | 138° |
| 2026-04-29 16:13 | 48.15878 | 11.81878 | 35198 ft | 502 kts | 138° |
| 2026-04-29 16:14 | 48.10746 | 11.88898 | 35195 ft | 501 kts | 138° |
| 2026-04-29 16:14 | 48.05617 | 11.95903 | 35179 ft | 502 kts | 138° |
| 2026-04-29 16:15 | 48.00431 | 12.02966 | 35181 ft | 502 kts | 138° |
| 2026-04-29 16:15 | 47.95290 | 12.09949 | 35181 ft | 503 kts | 138° |
| 2026-04-29 16:16 | 47.90096 | 12.16982 | 35200 ft | 503 kts | 139° |
| 2026-04-29 16:16 | 47.84936 | 12.23956 | 35185 ft | 504 kts | 139° |
| 2026-04-29 16:17 | 47.79738 | 12.30954 | 35194 ft | 505 kts | 139° |
| 2026-04-29 16:17 | 47.74532 | 12.37946 | 35189 ft | 507 kts | 139° |
| 2026-04-29 16:18 | 47.69328 | 12.44913 | 35167 ft | 507 kts | 139° |
| 2026-04-29 16:18 | 47.64105 | 12.51892 | 35192 ft | 507 kts | 139° |
| 2026-04-29 16:19 | 47.58883 | 12.58902 | 35189 ft | 508 kts | 139° |
| 2026-04-29 16:19 | 47.53686 | 12.65929 | 35206 ft | 510 kts | 140° |
| 2026-04-29 16:20 | 47.48437 | 12.73007 | 35194 ft | 511 kts | 140° |
| 2026-04-29 16:20 | 47.43203 | 12.80033 | 35197 ft | 511 kts | 140° |
| 2026-04-29 16:21 | 47.37937 | 12.87080 | 35202 ft | 512 kts | 140° |
| 2026-04-29 16:21 | 47.32710 | 12.94054 | 35179 ft | 512 kts | 140° |
| 2026-04-29 16:22 | 47.27435 | 13.01077 | 35169 ft | 513 kts | 140° |
| 2026-04-29 16:22 | 47.22156 | 13.08081 | 35178 ft | 513 kts | 140° |
| 2026-04-29 16:23 | 47.16843 | 13.15108 | 35157 ft | 514 kts | 140° |
| 2026-04-29 16:23 | 47.11527 | 13.22127 | 35134 ft | 516 kts | 140° |
| 2026-04-29 16:24 | 47.06202 | 13.29130 | 35131 ft | 516 kts | 141° |
| 2026-04-29 16:24 | 47.00888 | 13.36105 | 35118 ft | 517 kts | 140° |
| 2026-04-29 16:25 | 46.95530 | 13.43113 | 35124 ft | 517 kts | 140° |
| 2026-04-29 16:25 | 46.90192 | 13.50082 | 35129 ft | 517 kts | 140° |
| 2026-04-29 16:26 | 46.84816 | 13.57078 | 35128 ft | 517 kts | 141° |
| 2026-04-29 16:26 | 46.79482 | 13.63998 | 35153 ft | 518 kts | 141° |
| 2026-04-29 16:27 | 46.74121 | 13.70939 | 35167 ft | 515 kts | 141° |
| 2026-04-29 16:27 | 46.68747 | 13.77873 | 35184 ft | 516 kts | 142° |
| 2026-04-29 16:28 | 46.63404 | 13.84749 | 35183 ft | 516 kts | 142° |
| 2026-04-29 16:28 | 46.58043 | 13.91626 | 35177 ft | 515 kts | 141° |
| 2026-04-29 16:29 | 46.52689 | 13.98476 | 35184 ft | 515 kts | 142° |
| 2026-04-29 16:29 | 46.47399 | 14.05427 | 35186 ft | 516 kts | 139° |
| 2026-04-29 16:30 | 46.42247 | 14.12711 | 35176 ft | 515 kts | 138° |
| 2026-04-29 16:30 | 46.37140 | 14.19925 | 35181 ft | 516 kts | 139° |
| 2026-04-29 16:31 | 46.32030 | 14.27108 | 35191 ft | 516 kts | 139° |
| 2026-04-29 16:31 | 46.26903 | 14.34295 | 35198 ft | 516 kts | 139° |
| 2026-04-29 16:32 | 46.21760 | 14.41484 | 35197 ft | 516 kts | 139° |
| 2026-04-29 16:32 | 46.16593 | 14.48697 | 35206 ft | 516 kts | 139° |
| 2026-04-29 16:33 | 46.08873 | 14.59435 | 35206 ft | 517 kts | 139° |
| 2026-04-29 16:33 | 46.03706 | 14.66593 | 35208 ft | 517 kts | 140° |
| 2026-04-29 16:34 | 45.98553 | 14.73714 | 35186 ft | 516 kts | 140° |
| 2026-04-29 16:34 | 45.93364 | 14.80864 | 35177 ft | 516 kts | 140° |
| 2026-04-29 16:35 | 45.88194 | 14.87963 | 35177 ft | 516 kts | 140° |
| 2026-04-29 16:35 | 45.82999 | 14.95086 | 35172 ft | 516 kts | 140° |
| 2026-04-29 16:36 | 45.77840 | 15.02140 | 35173 ft | 516 kts | 140° |
| 2026-04-29 16:36 | 45.72671 | 15.09185 | 35175 ft | 516 kts | 140° |
| 2026-04-29 16:37 | 45.67489 | 15.16230 | 35183 ft | 515 kts | 140° |
| 2026-04-29 16:37 | 45.63157 | 15.22105 | 35182 ft | 515 kts | 140° |
| 2026-04-29 16:38 | 45.57104 | 15.30285 | 35186 ft | 514 kts | 140° |
| 2026-04-29 16:38 | 45.51822 | 15.37118 | 35189 ft | 513 kts | 141° |
| 2026-04-29 16:39 | 45.46540 | 15.43833 | 35191 ft | 513 kts | 141° |
| 2026-04-29 16:39 | 45.41220 | 15.50601 | 35187 ft | 512 kts | 141° |
| 2026-04-29 16:40 | 45.35924 | 15.57336 | 35187 ft | 512 kts | 141° |
| 2026-04-29 16:40 | 45.30645 | 15.64041 | 35186 ft | 511 kts | 141° |
| 2026-04-29 16:41 | 45.25344 | 15.70754 | 35185 ft | 510 kts | 142° |
| 2026-04-29 16:41 | 45.20054 | 15.77435 | 35182 ft | 510 kts | 142° |
| 2026-04-29 16:42 | 45.14780 | 15.84078 | 35181 ft | 509 kts | 142° |
| 2026-04-29 16:42 | 45.09521 | 15.90686 | 35179 ft | 509 kts | 142° |
| 2026-04-29 16:43 | 45.04238 | 15.97308 | 35172 ft | 508 kts | 142° |
| 2026-04-29 16:43 | 44.98937 | 16.03936 | 35170 ft | 508 kts | 142° |
| 2026-04-29 16:44 | 44.93662 | 16.10511 | 35169 ft | 508 kts | 142° |
| 2026-04-29 16:44 | 44.88386 | 16.17074 | 35156 ft | 507 kts | 142° |
| 2026-04-29 16:45 | 44.83098 | 16.23635 | 35154 ft | 508 kts | 142° |
| 2026-04-29 16:45 | 44.77787 | 16.30207 | 35141 ft | 506 kts | 142° |
| 2026-04-29 16:46 | 44.72498 | 16.36734 | 35137 ft | 507 kts | 142° |
| 2026-04-29 16:46 | 44.67212 | 16.43244 | 35127 ft | 506 kts | 142° |
| 2026-04-29 16:47 | 44.61957 | 16.49696 | 35125 ft | 506 kts | 142° |
| 2026-04-29 16:47 | 44.56645 | 16.56203 | 35127 ft | 506 kts | 142° |
| 2026-04-29 16:48 | 44.51380 | 16.62633 | 35122 ft | 506 kts | 142° |
| 2026-04-29 16:48 | 44.46044 | 16.69138 | 35115 ft | 505 kts | 143° |
| 2026-04-29 16:49 | 44.40786 | 16.75532 | 35117 ft | 505 kts | 143° |
| 2026-04-29 16:49 | 44.35463 | 16.81986 | 35118 ft | 505 kts | 143° |
| 2026-04-29 16:50 | 44.30190 | 16.88366 | 35114 ft | 505 kts | 143° |
| 2026-04-29 16:50 | 44.24907 | 16.94741 | 35112 ft | 504 kts | 143° |
| 2026-04-29 16:51 | 44.19620 | 17.01104 | 35116 ft | 504 kts | 143° |
| 2026-04-29 16:51 | 44.14312 | 17.07480 | 35114 ft | 504 kts | 143° |
| 2026-04-29 16:52 | 44.09036 | 17.13799 | 35112 ft | 504 kts | 143° |
| 2026-04-29 16:52 | 44.03735 | 17.20136 | 35108 ft | 503 kts | 143° |
| 2026-04-29 16:53 | 43.98446 | 17.26438 | 35100 ft | 503 kts | 143° |
| 2026-04-29 16:53 | 43.93132 | 17.32756 | 35104 ft | 503 kts | 143° |
| 2026-04-29 16:54 | 43.87842 | 17.39031 | 35100 ft | 502 kts | 143° |
| 2026-04-29 16:54 | 43.82547 | 17.45297 | 35106 ft | 502 kts | 142° |
| 2026-04-29 16:55 | 43.77243 | 17.51547 | 35104 ft | 501 kts | 143° |
| 2026-04-29 16:55 | 43.71656 | 17.57271 | 35107 ft | 498 kts | 149° |
| 2026-04-29 16:56 | 43.65918 | 17.62599 | 35112 ft | 498 kts | 149° |
| 2026-04-29 16:56 | 43.60178 | 17.67915 | 35106 ft | 497 kts | 150° |
| 2026-04-29 16:57 | 43.54423 | 17.73243 | 35102 ft | 497 kts | 150° |
| 2026-04-29 16:57 | 43.48713 | 17.78518 | 35094 ft | 497 kts | 150° |
| 2026-04-29 16:58 | 43.42965 | 17.83824 | 35097 ft | 497 kts | 150° |
| 2026-04-29 16:58 | 43.37255 | 17.89078 | 35106 ft | 497 kts | 150° |
| 2026-04-29 16:59 | 43.31512 | 17.94353 | 35109 ft | 497 kts | 150° |
| 2026-04-29 16:59 | 43.25776 | 17.99608 | 35109 ft | 497 kts | 150° |
| 2026-04-29 17:00 | 43.20031 | 18.04857 | 35097 ft | 497 kts | 150° |
| 2026-04-29 17:00 | 43.14258 | 18.10121 | 35093 ft | 498 kts | 150° |
| 2026-04-29 17:01 | 43.08532 | 18.15331 | 35092 ft | 497 kts | 150° |
| 2026-04-29 17:01 | 43.02789 | 18.20547 | 35091 ft | 497 kts | 150° |
| 2026-04-29 17:02 | 42.97067 | 18.25730 | 35093 ft | 496 kts | 150° |
| 2026-04-29 17:02 | 42.91293 | 18.30946 | 35085 ft | 495 kts | 150° |
| 2026-04-29 17:03 | 42.85582 | 18.36094 | 35086 ft | 495 kts | 150° |
| 2026-04-29 17:03 | 42.79832 | 18.41263 | 35084 ft | 496 kts | 150° |
| 2026-04-29 17:04 | 42.74084 | 18.46422 | 35082 ft | 496 kts | 150° |
| 2026-04-29 17:04 | 42.68358 | 18.51554 | 35082 ft | 496 kts | 150° |
| 2026-04-29 17:05 | 42.62579 | 18.56720 | 35081 ft | 495 kts | 150° |
| 2026-04-29 17:05 | 42.56849 | 18.61825 | 35077 ft | 494 kts | 150° |
| 2026-04-29 17:06 | 42.51107 | 18.66932 | 35073 ft | 494 kts | 150° |
| 2026-04-29 17:06 | 42.45386 | 18.72008 | 35072 ft | 494 kts | 150° |
| 2026-04-29 17:07 | 42.39625 | 18.77109 | 35065 ft | 494 kts | 150° |
| 2026-04-29 17:07 | 42.33894 | 18.82174 | 35059 ft | 493 kts | 150° |
| 2026-04-29 17:08 | 42.28188 | 18.87207 | 35062 ft | 493 kts | 150° |
| 2026-04-29 17:08 | 42.22446 | 18.92256 | 35055 ft | 492 kts | 150° |
| 2026-04-29 17:09 | 42.16742 | 18.97261 | 35048 ft | 492 kts | 150° |
| 2026-04-29 17:09 | 42.11009 | 19.02283 | 35049 ft | 492 kts | 150° |
| 2026-04-29 17:10 | 42.05269 | 19.07298 | 35043 ft | 493 kts | 150° |
| 2026-04-29 17:10 | 41.99554 | 19.12284 | 35034 ft | 492 kts | 150° |
| 2026-04-29 17:11 | 41.93832 | 19.17263 | 35036 ft | 491 kts | 150° |
| 2026-04-29 17:11 | 41.88072 | 19.22264 | 35040 ft | 491 kts | 150° |
| 2026-04-29 17:12 | 41.82350 | 19.27219 | 35037 ft | 492 kts | 150° |
| 2026-04-29 17:12 | 41.77729 | 19.31644 | 35037 ft | 495 kts | 144° |
| 2026-04-29 17:13 | 41.71746 | 19.38850 | 35042 ft | 497 kts | 138° |
| 2026-04-29 17:13 | 41.66816 | 19.45298 | 35039 ft | 497 kts | 137° |
| 2026-04-29 17:14 | 41.61903 | 19.51696 | 35042 ft | 496 kts | 137° |
| 2026-04-29 17:14 | 41.56977 | 19.58084 | 35046 ft | 496 kts | 137° |
| 2026-04-29 17:15 | 41.52013 | 19.64498 | 35047 ft | 495 kts | 137° |
| 2026-04-29 17:15 | 41.47073 | 19.70868 | 35049 ft | 495 kts | 138° |
| 2026-04-29 17:16 | 41.42115 | 19.77246 | 35054 ft | 495 kts | 138° |
| 2026-04-29 17:16 | 41.37163 | 19.83601 | 35060 ft | 495 kts | 138° |
| 2026-04-29 17:17 | 41.32220 | 19.89932 | 35073 ft | 495 kts | 138° |
| 2026-04-29 17:17 | 41.27291 | 19.96230 | 35079 ft | 494 kts | 138° |
| 2026-04-29 17:18 | 41.22334 | 20.02549 | 35082 ft | 494 kts | 138° |
| 2026-04-29 17:18 | 41.17405 | 20.08821 | 35080 ft | 494 kts | 138° |
| 2026-04-29 17:19 | 41.12439 | 20.15123 | 35075 ft | 493 kts | 138° |
| 2026-04-29 17:19 | 41.07486 | 20.21398 | 35084 ft | 493 kts | 138° |
| 2026-04-29 17:20 | 41.02538 | 20.27650 | 35087 ft | 493 kts | 138° |
| 2026-04-29 17:20 | 40.97581 | 20.33902 | 35091 ft | 493 kts | 138° |
| 2026-04-29 17:21 | 40.92630 | 20.40133 | 35098 ft | 493 kts | 138° |
| 2026-04-29 17:21 | 40.87670 | 20.46359 | 35099 ft | 492 kts | 138° |
| 2026-04-29 17:22 | 40.82746 | 20.52527 | 35106 ft | 492 kts | 138° |
| 2026-04-29 17:22 | 40.77742 | 20.58785 | 35110 ft | 492 kts | 137° |
| 2026-04-29 17:23 | 40.72805 | 20.64942 | 35111 ft | 491 kts | 137° |
| 2026-04-29 17:23 | 40.67855 | 20.71106 | 35115 ft | 491 kts | 138° |
| 2026-04-29 17:24 | 40.62903 | 20.77257 | 35117 ft | 490 kts | 139° |
| 2026-04-29 17:24 | 40.57937 | 20.83411 | 35124 ft | 490 kts | 139° |
| 2026-04-29 17:25 | 40.52967 | 20.89556 | 35129 ft | 491 kts | 138° |
| 2026-04-29 17:25 | 40.47988 | 20.95701 | 35129 ft | 490 kts | 139° |
| 2026-04-29 17:26 | 40.42912 | 21.01638 | 35126 ft | 490 kts | 141° |
| 2026-04-29 17:26 | 40.37816 | 21.07547 | 35125 ft | 490 kts | 139° |
| 2026-04-29 17:27 | 40.32815 | 21.13610 | 35123 ft | 490 kts | 139° |
| 2026-04-29 17:27 | 40.27839 | 21.19638 | 35129 ft | 489 kts | 139° |
| 2026-04-29 17:28 | 40.22820 | 21.25686 | 35124 ft | 489 kts | 139° |
| 2026-04-29 17:28 | 40.17828 | 21.31679 | 35121 ft | 490 kts | 139° |
| 2026-04-29 17:29 | 40.12778 | 21.37724 | 35114 ft | 490 kts | 139° |
| 2026-04-29 17:29 | 40.07740 | 21.43745 | 35110 ft | 490 kts | 139° |
| 2026-04-29 17:30 | 40.02749 | 21.49696 | 35107 ft | 489 kts | 139° |
| 2026-04-29 17:30 | 39.97764 | 21.55626 | 35102 ft | 489 kts | 139° |
| 2026-04-29 17:31 | 39.92726 | 21.61607 | 35100 ft | 489 kts | 139° |
| 2026-04-29 17:31 | 39.87749 | 21.67505 | 35085 ft | 489 kts | 139° |
| 2026-04-29 17:32 | 39.82726 | 21.73442 | 35084 ft | 489 kts | 139° |
| 2026-04-29 17:32 | 39.77710 | 21.79361 | 35081 ft | 489 kts | 139° |
| 2026-04-29 17:33 | 39.72731 | 21.85225 | 35075 ft | 488 kts | 139° |
| 2026-04-29 17:33 | 39.67661 | 21.91182 | 35071 ft | 488 kts | 139° |
| 2026-04-29 17:34 | 39.62618 | 21.97095 | 35060 ft | 488 kts | 139° |
| 2026-04-29 17:34 | 39.57585 | 22.02985 | 35056 ft | 488 kts | 139° |
| 2026-04-29 17:35 | 39.50037 | 22.11795 | 35055 ft | 488 kts | 139° |
| 2026-04-29 17:36 | 39.44976 | 22.17688 | 35049 ft | 487 kts | 139° |
| 2026-04-29 17:36 | 39.39979 | 22.23494 | 35053 ft | 487 kts | 139° |
| 2026-04-29 17:37 | 39.34911 | 22.29371 | 35053 ft | 487 kts | 139° |
| 2026-04-29 17:37 | 39.29887 | 22.35185 | 35054 ft | 487 kts | 139° |
| 2026-04-29 17:38 | 39.24834 | 22.41021 | 35050 ft | 487 kts | 139° |
| 2026-04-29 17:38 | 39.20548 | 22.45961 | 35049 ft | 487 kts | 139° |
| 2026-04-29 17:39 | 39.14851 | 22.52515 | 35053 ft | 487 kts | 139° |
| 2026-04-29 17:39 | 39.09796 | 22.58319 | 35061 ft | 487 kts | 139° |
| 2026-04-29 17:40 | 39.04740 | 22.64110 | 35066 ft | 487 kts | 139° |
| 2026-04-29 17:40 | 38.99686 | 22.69890 | 35076 ft | 488 kts | 140° |
| 2026-04-29 17:41 | 38.94644 | 22.75643 | 35087 ft | 488 kts | 140° |
| 2026-04-29 17:41 | 38.89572 | 22.81420 | 35084 ft | 488 kts | 140° |
| 2026-04-29 17:42 | 38.84502 | 22.87184 | 35063 ft | 488 kts | 140° |
| 2026-04-29 17:42 | 38.79421 | 22.92947 | 35053 ft | 489 kts | 140° |
| 2026-04-29 17:43 | 38.74343 | 22.98694 | 35043 ft | 488 kts | 140° |
| 2026-04-29 17:43 | 38.69271 | 23.04424 | 35042 ft | 488 kts | 140° |
| 2026-04-29 17:44 | 38.64200 | 23.10143 | 35039 ft | 489 kts | 140° |
| 2026-04-29 17:44 | 38.59092 | 23.15894 | 35042 ft | 489 kts | 140° |
| 2026-04-29 17:45 | 38.53995 | 23.21619 | 35041 ft | 488 kts | 140° |
| 2026-04-29 17:45 | 38.48928 | 23.27300 | 35048 ft | 488 kts | 140° |
| 2026-04-29 17:46 | 38.43830 | 23.33001 | 35047 ft | 489 kts | 140° |
| 2026-04-29 17:46 | 38.38714 | 23.38714 | 35049 ft | 489 kts | 140° |
| 2026-04-29 17:47 | 38.33589 | 23.44427 | 35050 ft | 489 kts | 140° |
| 2026-04-29 17:47 | 38.28508 | 23.50079 | 35059 ft | 489 kts | 140° |
| 2026-04-29 17:48 | 38.23376 | 23.55777 | 35056 ft | 488 kts | 140° |
| 2026-04-29 17:48 | 38.18283 | 23.61419 | 35060 ft | 487 kts | 140° |
| 2026-04-29 17:49 | 38.13024 | 23.66828 | 35065 ft | 487 kts | 144° |
| 2026-04-29 17:49 | 38.07550 | 23.71952 | 35056 ft | 488 kts | 145° |
| 2026-04-29 17:50 | 38.02139 | 23.77030 | 35063 ft | 488 kts | 144° |
| 2026-04-29 17:50 | 37.96674 | 23.82193 | 35066 ft | 488 kts | 144° |
| 2026-04-29 17:51 | 37.91242 | 23.87329 | 35062 ft | 487 kts | 144° |
| 2026-04-29 17:51 | 37.85825 | 23.92447 | 35062 ft | 488 kts | 144° |
| 2026-04-29 17:52 | 37.80403 | 23.97558 | 35055 ft | 488 kts | 144° |
| 2026-04-29 17:52 | 37.74944 | 24.02696 | 35060 ft | 489 kts | 144° |
| 2026-04-29 17:53 | 37.69488 | 24.07824 | 35052 ft | 490 kts | 144° |
| 2026-04-29 17:53 | 37.64030 | 24.12942 | 35067 ft | 490 kts | 144° |
| 2026-04-29 17:54 | 37.58587 | 24.18037 | 35048 ft | 489 kts | 144° |
| 2026-04-29 17:54 | 37.53128 | 24.23138 | 35049 ft | 490 kts | 144° |
| 2026-04-29 17:55 | 37.47646 | 24.28248 | 35055 ft | 491 kts | 144° |
| 2026-04-29 17:55 | 37.42183 | 24.33332 | 35047 ft | 491 kts | 144° |
| 2026-04-29 17:56 | 37.36688 | 24.38436 | 35060 ft | 491 kts | 144° |
| 2026-04-29 17:56 | 37.31208 | 24.43519 | 35053 ft | 491 kts | 144° |
| 2026-04-29 17:57 | 37.25693 | 24.48623 | 35042 ft | 491 kts | 144° |
| 2026-04-29 17:57 | 37.20197 | 24.53701 | 35142 ft | 491 kts | 144° |
| 2026-04-29 17:58 | 37.14729 | 24.58743 | 35063 ft | 490 kts | 144° |
| 2026-04-29 17:58 | 37.09244 | 24.63791 | 35048 ft | 490 kts | 144° |
| 2026-04-29 17:59 | 37.03723 | 24.68867 | 35046 ft | 492 kts | 145° |
| 2026-04-29 17:59 | 36.98228 | 24.73904 | 34775 ft | 492 kts | 145° |
| 2026-04-29 17:59 | 36.95473 | 24.76423 | 34254 ft | 486 kts | 145° |
| 2026-04-29 18:00 | 36.92767 | 24.78879 | 33726 ft | 482 kts | 146° |
| 2026-04-29 18:00 | 36.89972 | 24.81169 | 33208 ft | 482 kts | 149° |
| 2026-04-29 18:00 | 36.87124 | 24.83382 | 32684 ft | 482 kts | 149° |
| 2026-04-29 18:00 | 36.84267 | 24.85585 | 32161 ft | 482 kts | 149° |
| 2026-04-29 18:01 | 36.81422 | 24.87775 | 31640 ft | 483 kts | 149° |
| 2026-04-29 18:01 | 36.78589 | 24.89957 | 31130 ft | 483 kts | 149° |
| 2026-04-29 18:01 | 36.75714 | 24.92172 | 30614 ft | 483 kts | 149° |
| 2026-04-29 18:01 | 36.72882 | 24.94355 | 30108 ft | 485 kts | 149° |
| 2026-04-29 18:02 | 36.70014 | 24.96564 | 29600 ft | 486 kts | 149° |
| 2026-04-29 18:02 | 36.67116 | 24.98791 | 29090 ft | 486 kts | 149° |
| 2026-04-29 18:02 | 36.64251 | 25.00989 | 28587 ft | 486 kts | 149° |
| 2026-04-29 18:02 | 36.61359 | 25.03209 | 28078 ft | 487 kts | 149° |
| 2026-04-29 18:03 | 36.58490 | 25.05407 | 27574 ft | 488 kts | 149° |
| 2026-04-29 18:03 | 36.55622 | 25.07599 | 27074 ft | 488 kts | 149° |
| 2026-04-29 18:03 | 36.52726 | 25.09812 | 26565 ft | 489 kts | 149° |
| 2026-04-29 18:03 | 36.49807 | 25.12041 | 26054 ft | 489 kts | 149° |
| 2026-04-29 18:04 | 36.46919 | 25.14227 | 25547 ft | 490 kts | 151° |
| 2026-04-29 18:04 | 36.43780 | 25.15844 | 25135 ft | 487 kts | 166° |
| 2026-04-29 18:04 | 36.40475 | 25.16783 | 25053 ft | 486 kts | 170° |
| 2026-04-29 18:04 | 36.37187 | 25.17561 | 24613 ft | 483 kts | 171° |
| 2026-04-29 18:05 | 36.33916 | 25.18340 | 23972 ft | 476 kts | 171° |
| 2026-04-29 18:05 | 36.30697 | 25.19144 | 23335 ft | 468 kts | 170° |
| 2026-04-29 18:05 | 36.27522 | 25.19972 | 22699 ft | 462 kts | 169° |
| 2026-04-29 18:05 | 36.24402 | 25.20808 | 22129 ft | 454 kts | 169° |
| 2026-04-29 18:06 | 36.21344 | 25.21644 | 21574 ft | 447 kts | 169° |
| 2026-04-29 18:06 | 36.18358 | 25.22467 | 21022 ft | 440 kts | 169° |
| 2026-04-29 18:06 | 36.15408 | 25.23283 | 20473 ft | 434 kts | 169° |
| 2026-04-29 18:06 | 36.12479 | 25.24095 | 19918 ft | 428 kts | 169° |
| 2026-04-29 18:07 | 36.09593 | 25.24896 | 19368 ft | 423 kts | 168° |
| 2026-04-29 18:07 | 36.06712 | 25.25696 | 18811 ft | 418 kts | 168° |
| 2026-04-29 18:07 | 36.03933 | 25.26467 | 18288 ft | 412 kts | 168° |
| 2026-04-29 18:07 | 36.01171 | 25.27234 | 17797 ft | 399 kts | 168° |
| 2026-04-29 18:08 | 35.98498 | 25.27974 | 17288 ft | 382 kts | 168° |
| 2026-04-29 18:08 | 35.95924 | 25.28674 | 16767 ft | 378 kts | 168° |
| 2026-04-29 18:08 | 35.93366 | 25.29364 | 16190 ft | 375 kts | 169° |
| 2026-04-29 18:08 | 35.90859 | 25.30038 | 15629 ft | 370 kts | 169° |
| 2026-04-29 18:09 | 35.88390 | 25.30698 | 15054 ft | 358 kts | 169° |
| 2026-04-29 18:09 | 35.85980 | 25.31340 | 14473 ft | 350 kts | 169° |
| 2026-04-29 18:09 | 35.83640 | 25.31966 | 13889 ft | 340 kts | 169° |
| 2026-04-29 18:09 | 35.81346 | 25.32581 | 13327 ft | 337 kts | 168° |
| 2026-04-29 18:10 | 35.79046 | 25.33195 | 12761 ft | 335 kts | 168° |
| 2026-04-29 18:10 | 35.76780 | 25.33797 | 12190 ft | 335 kts | 168° |
| 2026-04-29 18:10 | 35.74513 | 25.34393 | 11633 ft | 336 kts | 168° |
| 2026-04-29 18:10 | 35.72221 | 25.34986 | 11073 ft | 338 kts | 168° |
| 2026-04-29 18:11 | 35.69918 | 25.35572 | 10517 ft | 333 kts | 168° |
| 2026-04-29 18:11 | 35.67696 | 25.36130 | 9948 ft | 322 kts | 168° |
| 2026-04-29 18:11 | 35.65538 | 25.36666 | 9392 ft | 310 kts | 168° |
| 2026-04-29 18:11 | 35.63456 | 25.37179 | 8941 ft | 299 kts | 168° |
| 2026-04-29 18:12 | 35.61455 | 25.37668 | 8491 ft | 296 kts | 168° |
| 2026-04-29 18:12 | 35.59430 | 25.38189 | 8046 ft | 295 kts | 167° |
| 2026-04-29 18:12 | 35.57431 | 25.38781 | 7606 ft | 296 kts | 166° |
| 2026-04-29 18:12 | 35.55444 | 25.39385 | 7178 ft | 297 kts | 166° |
| 2026-04-29 18:13 | 35.53421 | 25.39996 | 6734 ft | 297 kts | 166° |
| 2026-04-29 18:13 | 35.51422 | 25.40593 | 6299 ft | 298 kts | 166° |
| 2026-04-29 18:13 | 35.49387 | 25.41196 | 5853 ft | 298 kts | 166° |
| 2026-04-29 18:13 | 35.47385 | 25.41787 | 5412 ft | 298 kts | 165° |
| 2026-04-29 18:14 | 35.45370 | 25.42381 | 5020 ft | 296 kts | 165° |
| 2026-04-29 18:14 | 35.43353 | 25.42974 | 4642 ft | 294 kts | 165° |
| 2026-04-29 18:14 | 35.41388 | 25.43552 | 4345 ft | 289 kts | 165° |
| 2026-04-29 18:14 | 35.39442 | 25.44124 | 4074 ft | 283 kts | 165° |
| 2026-04-29 18:15 | 35.37555 | 25.44645 | 3804 ft | 278 kts | 171° |
| 2026-04-29 18:15 | 35.35684 | 25.44396 | 3508 ft | 263 kts | 206° |
| 2026-04-29 18:15 | 35.34389 | 25.43003 | 3235 ft | 246 kts | 244° |
| 2026-04-29 18:15 | 35.33919 | 25.41070 | 2975 ft | 229 kts | 262° |
| 2026-04-29 18:16 | 35.33596 | 25.39214 | 2698 ft | 219 kts | 257° |
| 2026-04-29 18:16 | 35.33159 | 25.37469 | 2435 ft | 209 kts | 252° |
| 2026-04-29 18:16 | 35.32710 | 25.35860 | 2432 ft | 187 kts | 262° |
| 2026-04-29 18:16 | 35.32706 | 25.34375 | 2381 ft | 165 kts | 278° |
| 2026-04-29 18:17 | 35.32866 | 25.33034 | 2389 ft | 157 kts | 282° |
| 2026-04-29 18:17 | 35.33007 | 25.31725 | 2418 ft | 151 kts | 281° |
| 2026-04-29 18:17 | 35.33125 | 25.30492 | 2153 ft | 143 kts | 278° |
| 2026-04-29 18:17 | 35.33238 | 25.29300 | 1827 ft | 139 kts | 276° |
| 2026-04-29 18:18 | 35.33324 | 25.28120 | 1501 ft | 139 kts | 275° |
| 2026-04-29 18:18 | 35.33397 | 25.26938 | 1219 ft | 139 kts | 271° |
| 2026-04-29 18:18 | 35.33464 | 25.25747 | 1041 ft | 140 kts | 274° |
| 2026-04-29 18:18 | 35.33523 | 25.24562 | 904 ft | 142 kts | 272° |
| 2026-04-29 18:19 | 35.33591 | 25.23357 | 771 ft | 139 kts | 278° |
| 2026-04-29 18:19 | 35.33699 | 25.22195 | 591 ft | 137 kts | 274° |
| 2026-04-29 18:19 | 35.33792 | 25.21022 | 372 ft | 139 kts | 271° |
| 2026-04-29 18:19 | 35.33849 | 25.19861 | 215 ft | 136 kts | 275° |
| 2026-04-29 18:20 | 35.33922 | 25.18722 | 91 ft | 131 kts | 276° |
| 2026-04-29 18:20 | 35.33993 | 25.17732 | 89 ft | 94 kts | 275° |
| 2026-04-29 18:20 | 35.34014 | 25.17180 | 86 ft | 32 kts | 255° |
| 2026-04-29 18:20 | 35.33956 | 25.17052 | 91 ft | 7 kts | 174° |
| 2026-04-29 18:21 | 35.33937 | 25.17101 | 93 ft | 7 kts | 95° |
| 2026-04-29 18:21 | 35.33933 | 25.17175 | 93 ft | 9 kts | 95° |
| 2026-04-29 18:21 | 35.33928 | 25.17260 | 95 ft | 10 kts | 95° |
| 2026-04-29 18:21 | 35.33920 | 25.17369 | 98 ft | 13 kts | 95° |
| 2026-04-29 18:22 | 35.33913 | 25.17483 | 98 ft | 13 kts | 95° |
| 2026-04-29 18:22 | 35.33904 | 25.17596 | 99 ft | 11 kts | 103° |
| 2026-04-29 18:22 | 35.33859 | 25.17625 | 103 ft | 4 kts | 182° |
| 2026-04-29 18:22 | 35.33839 | 25.17623 | 105 ft | 2 kts | 183° |
| 2026-04-29 18:23 | 35.33812 | 25.17621 | 108 ft | 1 kts | 184° |
| 2026-04-29 18:23 | 35.33792 | 25.17591 | 110 ft | 3 kts | 266° |
| 2026-04-29 18:23 | 35.33800 | 25.17559 | 110 ft | 2 kts | 307° |
| 2026-04-29 18:23 | 35.33807 | 25.17549 | 109 ft | 0 kts | 313° |